sensor_id;sensor_type;location;lat;lon;timestamp;P1;durP1;ratioP1;P2;durP2;ratioP2
19810;SDS011;10065;49.632;8.346;2023-11-21T07:04:36;12.83;;;7.57;;
19810;SDS011;10065;49.632;8.346;2023-11-21T07:07:04;13.20;;;8.30;;
19810;SDS011;10065;49.632;8.346;2023-11-21T07:09:33;14.83;;;9.07;;
19810;SDS011;10065;49.632;8.346;2023-11-21T07:12:01;13.57;;;7.63;;
19810;SDS011;10065;49.632;8.346;2023-11-21T07:14:32;11.53;;;6.43;;
19810;SDS011;10065;49.632;8.346;2023-11-21T07:17:00;12.73;;;7.57;;
19810;SDS011;10065;49.632;8.346;2023-11-21T07:19:28;11.37;;;7.20;;
19810;SDS011;10065;49.632;8.346;2023-11-21T07:21:58;11.13;;;7.03;;
19810;SDS011;10065;49.632;8.346;2023-11-21T07:24:26;12.30;;;7.00;;
19810;SDS011;10065;49.632;8.346;2023-11-21T07:26:54;11.07;;;7.37;;
19810;SDS011;10065;49.632;8.346;2023-11-21T07:29:23;16.60;;;7.73;;
19810;SDS011;10065;49.632;8.346;2023-11-21T07:31:55;11.83;;;7.90;;
19810;SDS011;10065;49.632;8.346;2023-11-21T07:35:01;15.23;;;8.10;;
19810;SDS011;10065;49.632;8.346;2023-11-21T07:41:49;15.20;;;8.40;;
19810;SDS011;10065;49.632;8.346;2023-11-21T07:44:18;13.20;;;8.63;;
19810;SDS011;10065;49.632;8.346;2023-11-21T07:46:50;13.63;;;8.50;;
19810;SDS011;10065;49.632;8.346;2023-11-21T07:49:20;13.53;;;9.40;;
19810;SDS011;10065;49.632;8.346;2023-11-21T07:51:49;13.97;;;8.87;;
19810;SDS011;10065;49.632;8.346;2023-11-21T07:54:17;15.77;;;10.13;;
19810;SDS011;10065;49.632;8.346;2023-11-21T07:56:46;14.60;;;8.97;;
19810;SDS011;10065;49.632;8.346;2023-11-21T07:59:14;15.27;;;8.73;;
19810;SDS011;10065;49.632;8.346;2023-11-21T08:01:43;15.73;;;9.47;;
19810;SDS011;10065;49.632;8.346;2023-11-21T08:04:12;16.20;;;9.57;;
19810;SDS011;10065;49.632;8.346;2023-11-21T08:06:40;15.10;;;9.73;;
19810;SDS011;10065;49.632;8.346;2023-11-21T08:09:09;12.97;;;8.20;;
19810;SDS011;10065;49.632;8.346;2023-11-21T08:11:38;15.93;;;8.30;;
19810;SDS011;10065;49.632;8.346;2023-11-21T08:14:08;15.47;;;9.53;;
19810;SDS011;10065;49.632;8.346;2023-11-21T08:16:36;12.60;;;7.83;;
19810;SDS011;10065;49.632;8.346;2023-11-21T08:19:04;15.60;;;8.67;;
19810;SDS011;10065;49.632;8.346;2023-11-21T08:21:32;13.30;;;8.40;;
19810;SDS011;10065;49.632;8.346;2023-11-21T08:24:00;16.20;;;8.57;;
19810;SDS011;10065;49.632;8.346;2023-11-21T08:26:30;16.57;;;9.00;;
19810;SDS011;10065;49.632;8.346;2023-11-21T08:28:58;14.97;;;8.97;;
19810;SDS011;10065;49.632;8.346;2023-11-21T08:31:28;14.27;;;9.40;;
19810;SDS011;10065;49.632;8.346;2023-11-21T08:33:56;16.10;;;9.10;;
19810;SDS011;10065;49.632;8.346;2023-11-21T08:36:25;20.83;;;9.63;;
19810;SDS011;10065;49.632;8.346;2023-11-21T08:38:53;16.03;;;9.67;;
19810;SDS011;10065;49.632;8.346;2023-11-21T08:41:21;23.90;;;13.40;;
19810;SDS011;10065;49.632;8.346;2023-11-21T08:43:49;15.13;;;9.00;;
19810;SDS011;10065;49.632;8.346;2023-11-21T08:46:18;15.00;;;9.50;;
19810;SDS011;10065;49.632;8.346;2023-11-21T08:48:48;19.43;;;9.50;;
19810;SDS011;10065;49.632;8.346;2023-11-21T08:51:20;14.67;;;8.93;;
19810;SDS011;10065;49.632;8.346;2023-11-21T08:53:47;18.07;;;10.10;;
19810;SDS011;10065;49.632;8.346;2023-11-21T08:56:15;13.40;;;8.30;;
19810;SDS011;10065;49.632;8.346;2023-11-21T08:58:45;15.70;;;8.27;;
19810;SDS011;10065;49.632;8.346;2023-11-21T09:01:13;13.40;;;8.00;;
19810;SDS011;10065;49.632;8.346;2023-11-21T09:03:41;13.80;;;7.67;;
19810;SDS011;10065;49.632;8.346;2023-11-21T09:06:11;16.70;;;8.13;;
19810;SDS011;10065;49.632;8.346;2023-11-21T09:08:40;11.90;;;7.30;;
19810;SDS011;10065;49.632;8.346;2023-11-21T09:11:13;13.77;;;6.70;;
19810;SDS011;10065;49.632;8.346;2023-11-21T09:13:41;11.60;;;7.50;;
19810;SDS011;10065;49.632;8.346;2023-11-21T09:16:10;14.40;;;7.40;;
19810;SDS011;10065;49.632;8.346;2023-11-21T09:18:38;10.67;;;6.73;;
19810;SDS011;10065;49.632;8.346;2023-11-21T09:21:07;13.77;;;7.40;;
19810;SDS011;10065;49.632;8.346;2023-11-21T09:23:42;11.30;;;7.30;;
19810;SDS011;10065;49.632;8.346;2023-11-21T09:26:12;11.10;;;6.73;;
19810;SDS011;10065;49.632;8.346;2023-11-21T09:28:43;12.27;;;6.93;;
19810;SDS011;10065;49.632;8.346;2023-11-21T09:31:47;11.33;;;6.60;;
19810;SDS011;10065;49.632;8.346;2023-11-21T09:34:16;11.37;;;6.73;;
19810;SDS011;10065;49.632;8.346;2023-11-21T09:36:45;9.70;;;5.90;;
19810;SDS011;10065;49.632;8.346;2023-11-21T09:39:25;10.20;;;5.63;;
19810;SDS011;10065;49.632;8.346;2023-11-21T09:41:55;10.23;;;6.30;;
19810;SDS011;10065;49.632;8.346;2023-11-21T09:44:29;11.60;;;5.30;;
19810;SDS011;10065;49.632;8.346;2023-11-21T09:47:03;10.60;;;6.17;;
19810;SDS011;10065;49.632;8.346;2023-11-21T09:49:37;12.77;;;5.60;;
19810;SDS011;10065;49.632;8.346;2023-11-21T09:52:07;9.43;;;4.87;;
19810;SDS011;10065;49.632;8.346;2023-11-21T09:54:40;9.37;;;5.30;;
19810;SDS011;10065;49.632;8.346;2023-11-21T09:57:14;8.93;;;4.83;;
19810;SDS011;10065;49.632;8.346;2023-11-21T09:59:44;7.87;;;4.33;;
19810;SDS011;10065;49.632;8.346;2023-11-21T10:02:14;10.67;;;4.57;;
19810;SDS011;10065;49.632;8.346;2023-11-21T10:04:46;9.17;;;4.67;;
19810;SDS011;10065;49.632;8.346;2023-11-21T10:07:15;8.20;;;4.57;;
19810;SDS011;10065;49.632;8.346;2023-11-21T10:09:46;10.17;;;4.57;;
19810;SDS011;10065;49.632;8.346;2023-11-21T10:12:15;11.73;;;5.30;;
19810;SDS011;10065;49.632;8.346;2023-11-21T10:14:44;10.30;;;6.13;;
19810;SDS011;10065;49.632;8.346;2023-11-21T10:17:19;9.10;;;5.57;;
19810;SDS011;10065;49.632;8.346;2023-11-21T10:19:49;10.67;;;5.00;;
19810;SDS011;10065;49.632;8.346;2023-11-21T10:22:20;10.53;;;5.20;;
19810;SDS011;10065;49.632;8.346;2023-11-21T10:24:51;10.30;;;5.07;;
19810;SDS011;10065;49.632;8.346;2023-11-21T10:27:20;8.17;;;4.87;;
19810;SDS011;10065;49.632;8.346;2023-11-21T10:29:51;9.30;;;5.13;;
19810;SDS011;10065;49.632;8.346;2023-11-21T10:32:19;9.03;;;4.77;;
19810;SDS011;10065;49.632;8.346;2023-11-21T10:34:55;8.67;;;4.93;;
19810;SDS011;10065;49.632;8.346;2023-11-21T10:37:24;8.83;;;4.43;;
19810;SDS011;10065;49.632;8.346;2023-11-21T10:39:58;10.33;;;5.00;;
19810;SDS011;10065;49.632;8.346;2023-11-21T10:42:31;12.20;;;5.90;;
19810;SDS011;10065;49.632;8.346;2023-11-21T10:45:00;10.43;;;6.00;;
19810;SDS011;10065;49.632;8.346;2023-11-21T10:47:30;9.10;;;5.03;;
19810;SDS011;10065;49.632;8.346;2023-11-21T10:50:00;9.23;;;4.90;;
19810;SDS011;10065;49.632;8.346;2023-11-21T10:52:32;8.07;;;4.30;;
19810;SDS011;10065;49.632;8.346;2023-11-21T10:55:08;6.90;;;4.07;;
19810;SDS011;10065;49.632;8.346;2023-11-21T10:57:44;6.63;;;3.87;;
19810;SDS011;10065;49.632;8.346;2023-11-21T11:00:16;7.57;;;3.60;;
19810;SDS011;10065;49.632;8.346;2023-11-21T11:02:49;9.27;;;3.90;;
19810;SDS011;10065;49.632;8.346;2023-11-21T11:05:19;7.53;;;3.97;;
19810;SDS011;10065;49.632;8.346;2023-11-21T11:08:04;7.37;;;3.50;;
19810;SDS011;10065;49.632;8.346;2023-11-21T11:10:48;7.60;;;3.63;;
19810;SDS011;10065;49.632;8.346;2023-11-21T11:13:25;5.83;;;3.20;;
19810;SDS011;10065;49.632;8.346;2023-11-21T11:16:00;7.27;;;3.73;;
19810;SDS011;10065;49.632;8.346;2023-11-21T11:18:30;8.57;;;3.10;;
19810;SDS011;10065;49.632;8.346;2023-11-21T11:21:27;8.00;;;3.60;;
19810;SDS011;10065;49.632;8.346;2023-11-21T11:24:31;9.23;;;4.20;;
19810;SDS011;10065;49.632;8.346;2023-11-21T11:28:10;8.00;;;3.20;;
19810;SDS011;10065;49.632;8.346;2023-11-21T11:30:45;8.47;;;3.90;;
19810;SDS011;10065;49.632;8.346;2023-11-21T11:33:33;6.93;;;3.47;;
19810;SDS011;10065;49.632;8.346;2023-11-21T11:36:24;6.63;;;3.13;;
19810;SDS011;10065;49.632;8.346;2023-11-21T11:39:54;6.13;;;2.90;;
19810;SDS011;10065;49.632;8.346;2023-11-21T11:42:23;6.70;;;2.43;;
19810;SDS011;10065;49.632;8.346;2023-11-21T11:44:53;7.23;;;3.07;;
19810;SDS011;10065;49.632;8.346;2023-11-21T11:47:24;6.40;;;3.20;;
19810;SDS011;10065;49.632;8.346;2023-11-21T11:50:02;8.63;;;3.00;;
19810;SDS011;10065;49.632;8.346;2023-11-21T11:52:50;4.73;;;2.30;;
19810;SDS011;10065;49.632;8.346;2023-11-21T11:55:25;6.33;;;2.60;;
19810;SDS011;10065;49.632;8.346;2023-11-21T11:58:00;4.67;;;2.30;;
19810;SDS011;10065;49.632;8.346;2023-11-21T12:03:39;5.17;;;3.00;;
19810;SDS011;10065;49.632;8.346;2023-11-21T12:06:09;7.07;;;3.00;;
19810;SDS011;10065;49.632;8.346;2023-11-21T12:08:39;5.77;;;2.60;;
19810;SDS011;10065;49.632;8.346;2023-11-21T12:11:59;6.33;;;3.10;;
19810;SDS011;10065;49.632;8.346;2023-11-21T12:14:37;10.50;;;3.70;;
19810;SDS011;10065;49.632;8.346;2023-11-21T12:18:10;6.37;;;3.67;;
19810;SDS011;10065;49.632;8.346;2023-11-21T12:20:49;8.57;;;3.27;;
19810;SDS011;10065;49.632;8.346;2023-11-21T12:23:29;7.90;;;4.13;;
19810;SDS011;10065;49.632;8.346;2023-11-21T12:26:09;7.60;;;3.23;;
19810;SDS011;10065;49.632;8.346;2023-11-21T12:28:40;6.83;;;3.03;;
19810;SDS011;10065;49.632;8.346;2023-11-21T12:31:16;6.57;;;2.77;;
19810;SDS011;10065;49.632;8.346;2023-11-21T12:33:48;7.27;;;3.10;;
19810;SDS011;10065;49.632;8.346;2023-11-21T12:36:21;5.87;;;2.43;;
19810;SDS011;10065;49.632;8.346;2023-11-21T12:38:53;6.40;;;3.13;;
19810;SDS011;10065;49.632;8.346;2023-11-21T12:42:05;7.47;;;3.03;;
19810;SDS011;10065;49.632;8.346;2023-11-21T12:44:40;8.17;;;2.37;;
19810;SDS011;10065;49.632;8.346;2023-11-21T12:48:17;6.63;;;2.00;;
19810;SDS011;10065;49.632;8.346;2023-11-21T12:51:05;7.50;;;2.93;;
19810;SDS011;10065;49.632;8.346;2023-11-21T12:54:00;6.37;;;2.23;;
19810;SDS011;10065;49.632;8.346;2023-11-21T12:56:49;4.27;;;2.33;;
19810;SDS011;10065;49.632;8.346;2023-11-21T12:59:47;9.03;;;2.63;;
19810;SDS011;10065;49.632;8.346;2023-11-21T13:06:41;8.10;;;3.50;;
19810;SDS011;10065;49.632;8.346;2023-11-21T13:20:52;13.27;;;4.10;;
19810;SDS011;10065;49.632;8.346;2023-11-21T13:24:22;8.93;;;4.30;;
19810;SDS011;10065;49.632;8.346;2023-11-21T13:31:24;12.17;;;4.50;;
19810;SDS011;10065;49.632;8.346;2023-11-21T13:38:51;9.30;;;3.73;;
19810;SDS011;10065;49.632;8.346;2023-11-21T13:42:00;8.57;;;3.13;;
19810;SDS011;10065;49.632;8.346;2023-11-21T14:07:13;7.70;;;3.70;;
19810;SDS011;10065;49.632;8.346;2023-11-21T14:10:34;10.60;;;3.97;;
19810;SDS011;10065;49.632;8.346;2023-11-21T14:14:14;10.77;;;3.70;;
19810;SDS011;10065;49.632;8.346;2023-11-21T14:17:21;9.83;;;3.67;;
19810;SDS011;10065;49.632;8.346;2023-11-21T14:20:54;8.10;;;3.60;;
19810;SDS011;10065;49.632;8.346;2023-11-21T14:32:06;12.50;;;3.60;;
19810;SDS011;10065;49.632;8.346;2023-11-21T14:43:25;8.23;;;3.00;;
19810;SDS011;10065;49.632;8.346;2023-11-21T16:14:34;10.20;;;5.43;;
19810;SDS011;10065;49.632;8.346;2023-11-21T16:17:08;10.83;;;6.30;;
19810;SDS011;10065;49.632;8.346;2023-11-21T16:19:38;11.27;;;5.37;;
19810;SDS011;10065;49.632;8.346;2023-11-21T16:22:07;10.60;;;5.20;;
19810;SDS011;10065;49.632;8.346;2023-11-21T16:24:35;10.80;;;6.23;;
19810;SDS011;10065;49.632;8.346;2023-11-21T16:27:03;10.57;;;5.73;;
19810;SDS011;10065;49.632;8.346;2023-11-21T16:29:38;10.90;;;6.23;;
19810;SDS011;10065;49.632;8.346;2023-11-21T16:32:10;13.30;;;5.30;;
19810;SDS011;10065;49.632;8.346;2023-11-21T16:34:43;9.63;;;5.43;;
19810;SDS011;10065;49.632;8.346;2023-11-21T16:37:12;8.87;;;5.37;;
19810;SDS011;10065;49.632;8.346;2023-11-21T16:39:41;12.73;;;5.60;;
19810;SDS011;10065;49.632;8.346;2023-11-21T16:42:13;10.60;;;5.80;;
19810;SDS011;10065;49.632;8.346;2023-11-21T16:44:49;12.20;;;6.13;;
19810;SDS011;10065;49.632;8.346;2023-11-21T16:47:22;13.70;;;5.83;;
19810;SDS011;10065;49.632;8.346;2023-11-21T16:49:55;14.97;;;5.73;;
19810;SDS011;10065;49.632;8.346;2023-11-21T16:52:24;14.00;;;6.10;;
19810;SDS011;10065;49.632;8.346;2023-11-21T16:54:58;12.13;;;6.17;;
19810;SDS011;10065;49.632;8.346;2023-11-21T16:57:26;11.90;;;6.20;;
19810;SDS011;10065;49.632;8.346;2023-11-21T16:59:56;12.77;;;6.43;;
19810;SDS011;10065;49.632;8.346;2023-11-21T17:02:28;14.83;;;6.30;;
19810;SDS011;10065;49.632;8.346;2023-11-21T17:05:01;14.20;;;5.90;;
19810;SDS011;10065;49.632;8.346;2023-11-21T17:07:35;11.57;;;5.90;;
19810;SDS011;10065;49.632;8.346;2023-11-21T17:10:35;15.47;;;5.60;;
19810;SDS011;10065;49.632;8.346;2023-11-21T17:13:20;10.90;;;6.43;;
19810;SDS011;10065;49.632;8.346;2023-11-21T17:15:57;13.20;;;6.77;;
19810;SDS011;10065;49.632;8.346;2023-11-21T17:18:35;12.43;;;6.80;;
19810;SDS011;10065;49.632;8.346;2023-11-21T17:21:22;14.03;;;6.10;;
19810;SDS011;10065;49.632;8.346;2023-11-21T17:24:16;13.00;;;6.27;;
19810;SDS011;10065;49.632;8.346;2023-11-21T17:30:12;11.40;;;6.50;;
19810;SDS011;10065;49.632;8.346;2023-11-21T19:40:33;21.20;;;10.97;;
19810;SDS011;10065;49.632;8.346;2023-11-21T19:46:58;22.63;;;12.10;;
19810;SDS011;10065;49.632;8.346;2023-11-21T19:49:31;19.73;;;11.27;;
19810;SDS011;10065;49.632;8.346;2023-11-21T19:52:20;22.50;;;12.03;;
19810;SDS011;10065;49.632;8.346;2023-11-21T19:55:33;25.30;;;12.63;;
19810;SDS011;10065;49.632;8.346;2023-11-21T19:58:39;19.60;;;10.23;;
19810;SDS011;10065;49.632;8.346;2023-11-21T20:01:16;21.63;;;10.77;;
19810;SDS011;10065;49.632;8.346;2023-11-21T20:04:15;18.13;;;9.23;;
19810;SDS011;10065;49.632;8.346;2023-11-21T20:07:22;20.83;;;10.27;;
19810;SDS011;10065;49.632;8.346;2023-11-21T20:10:07;17.53;;;10.00;;
19810;SDS011;10065;49.632;8.346;2023-11-21T20:13:29;19.53;;;9.37;;
19810;SDS011;10065;49.632;8.346;2023-11-21T20:16:38;17.70;;;9.57;;
19810;SDS011;10065;49.632;8.346;2023-11-21T20:19:22;18.13;;;8.80;;
19810;SDS011;10065;49.632;8.346;2023-11-21T20:23:24;14.67;;;8.90;;
19810;SDS011;10065;49.632;8.346;2023-11-21T20:26:21;11.50;;;6.03;;
19810;SDS011;10065;49.632;8.346;2023-11-21T20:43:45;4.57;;;3.00;;
19810;SDS011;10065;49.632;8.346;2023-11-21T20:47:10;5.03;;;2.90;;
19810;SDS011;10065;49.632;8.346;2023-11-21T20:50:12;8.20;;;3.57;;
19810;SDS011;10065;49.632;8.346;2023-11-21T20:54:02;5.70;;;3.53;;
19810;SDS011;10065;49.632;8.346;2023-11-21T21:08:18;6.77;;;4.10;;
19810;SDS011;10065;49.632;8.346;2023-11-21T21:11:28;6.57;;;3.80;;
19810;SDS011;10065;49.632;8.346;2023-11-21T21:15:02;7.30;;;4.13;;
19810;SDS011;10065;49.632;8.346;2023-11-21T21:29:18;9.70;;;4.47;;
19810;SDS011;10065;49.632;8.346;2023-11-21T21:32:29;9.00;;;4.60;;
19810;SDS011;10065;49.632;8.346;2023-11-21T21:35:37;6.53;;;3.60;;
19810;SDS011;10065;49.632;8.346;2023-11-21T21:42:33;7.03;;;4.17;;
19810;SDS011;10065;49.632;8.346;2023-11-21T22:26:33;7.83;;;3.90;;
19810;SDS011;10065;49.632;8.346;2023-11-21T22:30:27;5.80;;;3.33;;
19810;SDS011;10065;49.632;8.346;2023-11-21T22:34:06;6.90;;;3.60;;
19810;SDS011;10065;49.632;8.346;2023-11-21T22:37:54;6.50;;;3.17;;
